Time;durP1;ratioP1;P1;durP2;ratioP2;P2;SDS_P1;SDS_P2;PMS_P1;PMS_P2;Temp;Humidity;BMP_temperature;BMP_pressure;BME280_temperature;BME280_humidity;BME280_pressure;Samples;Min_cycle;Max_cycle;Signal;HPM_P1;HPM_P2
2021/04/05 00:01:03;;;;;;;51.72;20.80;;;;;;;;;;5033732;28;20548;-67
2021/04/05 00:03:28;;;;;;;49.70;20.70;;;;;;;;;;5054994;28;20017;-68
2021/04/05 00:05:53;;;;;;;51.10;21.05;;;;;;;;;;5051275;28;20056;-67
2021/04/05 00:08:18;;;;;;;50.75;21.13;;;;;;;;;;5050444;28;20028;-67
2021/04/05 00:10:45;;;;;;;49.17;19.00;;;;;;;;;;5053513;28;20025;-66
2021/04/05 00:13:12;;;;;;;56.13;21.10;;;;;;;;;;5051971;28;20082;-66
2021/04/05 00:15:38;;;;;;;52.42;20.42;;;;;;;;;;5031358;28;20025;-67
2021/04/05 00:18:03;;;;;;;50.10;20.02;;;;;;;;;;5051291;28;20091;-68
2021/04/05 00:20:30;;;;;;;45.00;18.58;;;;;;;;;;5050106;28;20020;-66
2021/04/05 00:22:55;;;;;;;46.38;20.05;;;;;;;;;;5050830;28;20416;-68
2021/04/05 00:25:21;;;;;;;50.88;18.38;;;;;;;;;;5050431;28;20021;-66
2021/04/05 00:27:46;;;;;;;61.90;21.65;;;;;;;;;;5050519;28;20029;-67
2021/04/05 00:30:16;;;;;;;63.10;20.13;;;;;;;;;;5049162;28;20029;-66
2021/04/05 00:32:42;;;;;;;62.92;19.73;;;;;;;;;;5050353;28;20667;-66
2021/04/05 00:35:07;;;;;;;41.65;18.63;;;;;;;;;;5049891;28;20085;-66
2021/04/05 00:37:32;;;;;;;55.83;19.42;;;;;;;;;;5031273;28;20025;-67
2021/04/05 00:39:57;;;;;;;48.17;20.83;;;;;;;;;;5047658;28;20027;-66
2021/04/05 00:42:23;;;;;;;55.42;19.10;;;;;;;;;;5050570;28;20031;-66
2021/04/05 00:44:48;;;;;;;52.35;19.48;;;;;;;;;;5049859;28;20401;-68
2021/04/05 00:47:14;;;;;;;53.03;19.67;;;;;;;;;;5050764;28;20036;-66
2021/04/05 00:49:40;;;;;;;59.70;19.88;;;;;;;;;;5049543;28;20523;-67
2021/04/05 00:52:05;;;;;;;53.35;20.10;;;;;;;;;;5050752;28;20037;-67
2021/04/05 00:54:30;;;;;;;63.13;21.08;;;;;;;;;;5049540;28;20029;-67
2021/04/05 00:56:56;;;;;;;59.10;22.33;;;;;;;;;;5050274;28;20048;-67
2021/04/05 00:59:21;;;;;;;57.58;22.00;;;;;;;;;;5031579;28;20172;-67
2021/04/05 01:01:47;;;;;;;56.50;21.45;;;;;;;;;;5050223;28;20377;-68
2021/04/05 01:04:12;;;;;;;55.95;18.65;;;;;;;;;;5048652;28;20044;-66
2021/04/05 01:06:38;;;;;;;45.80;15.02;;;;;;;;;;5050834;28;20017;-67
2021/04/05 01:09:04;;;;;;;58.55;21.35;;;;;;;;;;5050351;28;20025;-67
2021/04/05 01:11:30;;;;;;;26.02;12.02;;;;;;;;;;5050177;28;20098;-67
2021/04/05 01:13:56;;;;;;;26.92;11.10;;;;;;;;;;5049540;28;20029;-67
2021/04/05 01:16:23;;;;;;;63.58;23.65;;;;;;;;;;5047687;28;20140;-67
2021/04/05 01:18:48;;;;;;;71.35;24.35;;;;;;;;;;5047002;28;20112;-67
2021/04/05 01:21:13;;;;;;;48.35;21.05;;;;;;;;;;5049792;28;20107;-68
2021/04/05 01:23:39;;;;;;;63.58;21.92;;;;;;;;;;5049856;28;20027;-67
2021/04/05 01:26:04;;;;;;;49.58;19.98;;;;;;;;;;5049995;28;20092;-66
2021/04/05 01:28:30;;;;;;;33.17;11.07;;;;;;;;;;5048363;28;20028;-67
2021/04/05 01:30:56;;;;;;;56.95;22.77;;;;;;;;;;5049513;28;20079;-66
2021/04/05 01:33:27;;;;;;;61.42;22.20;;;;;;;;;;5049612;28;20528;-67
2021/04/05 01:36:04;;;;;;;64.00;22.38;;;;;;;;;;5048950;28;20074;-67
2021/04/05 01:38:29;;;;;;;68.88;20.80;;;;;;;;;;5049645;28;20120;-66
2021/04/05 01:40:56;;;;;;;67.77;22.43;;;;;;;;;;5049094;28;20103;-66
2021/04/05 01:43:22;;;;;;;62.63;21.80;;;;;;;;;;5049643;28;20259;-66
2021/04/05 01:45:47;;;;;;;52.63;20.05;;;;;;;;;;5049874;28;20033;-66
2021/04/05 01:48:15;;;;;;;51.25;20.08;;;;;;;;;;5048534;28;20029;-68
2021/04/05 01:50:41;;;;;;;46.03;18.73;;;;;;;;;;5049954;28;20108;-67
2021/04/05 01:53:07;;;;;;;54.92;22.25;;;;;;;;;;5049368;28;20029;-67
2021/04/05 01:55:32;;;;;;;51.97;21.48;;;;;;;;;;5048328;28;20033;-67
2021/04/05 01:57:58;;;;;;;61.10;20.95;;;;;;;;;;5048433;28;20721;-67
2021/04/05 02:00:25;;;;;;;39.28;12.95;;;;;;;;;;5049155;28;20477;-67
2021/04/05 02:02:50;;;;;;;59.60;20.35;;;;;;;;;;5053122;28;20029;-67
2021/04/05 02:05:16;;;;;;;64.32;23.95;;;;;;;;;;5049903;28;20015;-67
2021/04/05 02:07:41;;;;;;;41.47;14.27;;;;;;;;;;5049545;28;20535;-67
2021/04/05 02:10:08;;;;;;;55.45;18.38;;;;;;;;;;5062585;22;20031;-62
2021/04/05 02:12:34;;;;;;;59.97;20.25;;;;;;;;;;5033148;28;20040;-62
2021/04/05 02:14:59;;;;;;;62.75;21.15;;;;;;;;;;5037929;28;20021;-62
2021/04/05 02:17:24;;;;;;;59.15;21.92;;;;;;;;;;5042381;28;20068;-62
2021/04/05 02:19:50;;;;;;;65.45;23.55;;;;;;;;;;5034579;28;20135;-62
2021/04/05 02:22:15;;;;;;;56.30;20.80;;;;;;;;;;5034522;28;20031;-63
2021/04/05 02:24:41;;;;;;;61.63;22.65;;;;;;;;;;5034137;28;20047;-62
2021/04/05 02:27:07;;;;;;;58.92;19.80;;;;;;;;;;5040019;28;20100;-62
2021/04/05 02:29:32;;;;;;;65.78;22.05;;;;;;;;;;5033907;28;20097;-62
2021/04/05 02:31:57;;;;;;;53.90;19.77;;;;;;;;;;5034601;28;20052;-62
2021/04/05 02:34:23;;;;;;;62.05;22.52;;;;;;;;;;5044063;28;20049;-62
2021/04/05 02:36:48;;;;;;;57.92;20.75;;;;;;;;;;5021414;28;20116;-62
2021/04/05 02:39:13;;;;;;;63.35;20.98;;;;;;;;;;5032515;28;20446;-62
2021/04/05 02:41:43;;;;;;;50.53;19.15;;;;;;;;;;5039356;28;20021;-62
2021/04/05 02:44:08;;;;;;;27.38;12.25;;;;;;;;;;5036262;28;20473;-62
2021/04/05 02:46:35;;;;;;;63.72;19.92;;;;;;;;;;5013862;28;20072;-62
2021/04/05 02:49:03;;;;;;;61.00;19.83;;;;;;;;;;5027044;28;20133;-62
2021/04/05 02:51:28;;;;;;;27.80;11.68;;;;;;;;;;5032812;28;20041;-62
2021/04/05 02:53:56;;;;;;;53.22;20.45;;;;;;;;;;5032881;28;20021;-62
2021/04/05 02:56:21;;;;;;;54.55;21.08;;;;;;;;;;5044927;28;20029;-62
2021/04/05 02:58:48;;;;;;;32.47;12.40;;;;;;;;;;5036757;28;20017;-63
2021/04/05 03:01:14;;;;;;;46.15;16.73;;;;;;;;;;5038382;28;20544;-63
2021/04/05 03:03:39;;;;;;;51.65;18.20;;;;;;;;;;5035363;28;20104;-62
2021/04/05 03:06:06;;;;;;;29.42;12.95;;;;;;;;;;5039741;28;20017;-62
2021/04/05 03:08:31;;;;;;;47.60;16.75;;;;;;;;;;5035066;28;20013;-62
2021/04/05 03:10:57;;;;;;;48.55;19.25;;;;;;;;;;5043047;28;20039;-62
2021/04/05 03:13:24;;;;;;;30.23;11.13;;;;;;;;;;5042590;28;20390;-62
2021/04/05 03:15:50;;;;;;;30.88;11.88;;;;;;;;;;5039423;28;20028;-62
2021/04/05 03:18:16;;;;;;;52.28;17.92;;;;;;;;;;5024100;28;20029;-63
2021/04/05 03:20:41;;;;;;;51.28;22.75;;;;;;;;;;5033465;28;20052;-62
2021/04/05 03:23:06;;;;;;;56.97;22.85;;;;;;;;;;5038762;28;20468;-62
2021/04/05 03:25:32;;;;;;;59.08;22.88;;;;;;;;;;5031286;28;20020;-62
2021/04/05 03:27:57;;;;;;;53.72;22.15;;;;;;;;;;5045531;28;20043;-62
2021/04/05 03:30:41;;;;;;;49.72;19.98;;;;;;;;;;5042615;28;20470;-62
2021/04/05 03:33:10;;;;;;;54.38;22.23;;;;;;;;;;5025126;28;20116;-63
2021/04/05 03:35:37;;;;;;;68.03;23.70;;;;;;;;;;5031354;28;20509;-62
2021/04/05 03:38:03;;;;;;;50.20;18.08;;;;;;;;;;5032626;28;20424;-62
2021/04/05 03:40:29;;;;;;;51.63;19.58;;;;;;;;;;5037991;28;20342;-63
2021/04/05 03:43:12;;;;;;;56.97;21.48;;;;;;;;;;5050026;28;20062;-63
2021/04/05 03:45:43;;;;;;;51.30;21.00;;;;;;;;;;5035346;28;20021;-62
2021/04/05 03:48:08;;;;;;;;;;;;;;;;;;5038545;28;20021;-62
2021/04/05 03:50:33;;;;;;;56.88;24.55;;;;;;;;;;5037582;28;19913;-62
2021/04/05 03:53:06;;;;;;;56.72;21.65;;;;;;;;;;5032009;28;20056;-62
2021/04/05 03:55:32;;;;;;;55.42;20.75;;;;;;;;;;5041117;28;20424;-62
2021/04/05 03:57:58;;;;;;;50.95;22.60;;;;;;;;;;5042672;28;20528;-62
2021/04/05 04:00:25;;;;;;;53.65;21.55;;;;;;;;;;5029481;28;20029;-62
2021/04/05 04:02:52;;;;;;;26.65;10.93;;;;;;;;;;5013106;28;20026;-62
2021/04/05 04:05:25;;;;;;;51.08;19.15;;;;;;;;;;5032804;28;20485;-62
2021/04/05 04:08:09;;;;;;;71.82;22.75;;;;;;;;;;5031091;28;20477;-62
2021/04/05 04:10:36;;;;;;;59.17;18.75;;;;;;;;;;5028330;28;20152;-62
2021/04/05 04:13:04;;;;;;;54.25;20.77;;;;;;;;;;5032175;28;20509;-62
2021/04/05 04:15:30;;;;;;;58.85;25.20;;;;;;;;;;5040483;28;20032;-62
2021/04/05 04:17:56;;;;;;;61.53;24.85;;;;;;;;;;5033608;28;20025;-62
2021/04/05 04:20:23;;;;;;;49.38;17.98;;;;;;;;;;5030337;28;20025;-62
2021/04/05 04:22:49;;;;;;;61.72;24.35;;;;;;;;;;5030577;28;20017;-62
2021/04/05 04:25:15;;;;;;;59.85;20.30;;;;;;;;;;5030102;28;20025;-62
2021/04/05 04:27:42;;;;;;;64.47;23.58;;;;;;;;;;5037339;28;20020;-62
2021/04/05 04:30:08;;;;;;;48.78;19.95;;;;;;;;;;5040474;28;20025;-62
2021/04/05 04:32:33;;;;;;;58.95;24.02;;;;;;;;;;5030920;28;20393;-63
2021/04/05 04:34:59;;;;;;;58.97;23.42;;;;;;;;;;5030990;28;20025;-62
2021/04/05 04:37:24;;;;;;;76.68;25.88;;;;;;;;;;5019141;28;20433;-62
2021/04/05 04:39:50;;;;;;;69.70;26.23;;;;;;;;;;5031561;28;20078;-62
2021/04/05 04:42:16;;;;;;;59.42;21.02;;;;;;;;;;5031208;28;20030;-62
2021/04/05 04:44:41;;;;;;;60.33;20.73;;;;;;;;;;5030463;28;20045;-62
2021/04/05 04:47:06;;;;;;;56.25;20.40;;;;;;;;;;5030148;28;20482;-63
2021/04/05 04:49:32;;;;;;;50.45;21.17;;;;;;;;;;5036100;28;20373;-62
2021/04/05 04:51:57;;;;;;;58.67;21.10;;;;;;;;;;5030487;28;20022;-62
2021/04/05 04:54:22;;;;;;;59.17;21.77;;;;;;;;;;5032974;28;20022;-62
2021/04/05 04:56:47;;;;;;;67.65;26.70;;;;;;;;;;5032690;28;20036;-63
2021/04/05 04:59:13;;;;;;;65.15;22.60;;;;;;;;;;5035881;28;20111;-63
2021/04/05 05:01:39;;;;;;;58.40;22.13;;;;;;;;;;5036227;28;20069;-63
2021/04/05 05:04:10;;;;;;;60.35;24.08;;;;;;;;;;5026722;28;20018;-63
2021/04/05 05:06:36;;;;;;;55.38;24.00;;;;;;;;;;5034639;28;20010;-63
2021/04/05 05:09:02;;;;;;;66.05;23.40;;;;;;;;;;5013629;28;20384;-63
2021/04/05 05:11:27;;;;;;;58.00;21.90;;;;;;;;;;5027363;28;20034;-63
2021/04/05 05:13:55;;;;;;;70.00;21.63;;;;;;;;;;5034557;28;20029;-63
2021/04/05 05:16:20;;;;;;;53.08;23.23;;;;;;;;;;5034114;28;20049;-63
2021/04/05 05:18:46;;;;;;;58.55;22.98;;;;;;;;;;5031432;28;20130;-63
2021/04/05 05:21:15;;;;;;;56.08;23.55;;;;;;;;;;5035810;28;20032;-63
2021/04/05 05:23:41;;;;;;;62.60;24.00;;;;;;;;;;5042568;28;20018;-63
2021/04/05 05:26:07;;;;;;;52.97;21.58;;;;;;;;;;5044103;28;20462;-63
2021/04/05 05:28:35;;;;;;;59.03;23.25;;;;;;;;;;5029512;28;20064;-63
2021/04/05 05:31:01;;;;;;;63.70;28.05;;;;;;;;;;5033597;28;20441;-62
2021/04/05 05:33:26;;;;;;;51.05;22.05;;;;;;;;;;5028067;28;20021;-62
2021/04/05 05:35:52;;;;;;;53.72;22.17;;;;;;;;;;5032125;28;20347;-62
2021/04/05 05:38:20;;;;;;;65.18;26.65;;;;;;;;;;5040683;28;20037;-63
2021/04/05 05:40:45;;;;;;;57.92;22.52;;;;;;;;;;5021726;28;20021;-63
2021/04/05 05:43:11;;;;;;;79.40;25.70;;;;;;;;;;5028129;28;20028;-63
2021/04/05 05:45:49;;;;;;;63.78;27.50;;;;;;;;;;5033239;28;20107;-63
2021/04/05 05:48:23;;;;;;;59.60;26.67;;;;;;;;;;5029172;28;20268;-63
2021/04/05 05:50:48;;;;;;;78.63;30.40;;;;;;;;;;5040510;28;20110;-63
2021/04/05 05:53:20;;;;;;;81.10;29.00;;;;;;;;;;5029878;28;20025;-63
2021/04/05 05:56:03;;;;;;;88.97;28.45;;;;;;;;;;5031631;28;20136;-63
2021/04/05 05:58:38;;;;;;;83.18;33.13;;;;;;;;;;5044243;28;20029;-63
2021/04/05 06:01:18;;;;;;;66.45;26.38;;;;;;;;;;5030247;28;20029;-63
2021/04/05 06:03:51;;;;;;;72.30;31.60;;;;;;;;;;5035803;28;20017;-63
2021/04/05 06:06:21;;;;;;;76.20;28.60;;;;;;;;;;5035824;28;20481;-63
2021/04/05 06:08:56;;;;;;;57.53;22.73;;;;;;;;;;5036565;28;20029;-63
2021/04/05 06:11:40;;;;;;;49.95;19.52;;;;;;;;;;5033285;28;20117;-63
2021/04/05 06:14:11;;;;;;;62.55;25.77;;;;;;;;;;5033844;28;20470;-63
2021/04/05 06:16:57;;;;;;;46.10;16.13;;;;;;;;;;5030156;28;20037;-63
2021/04/05 06:19:41;;;;;;;73.93;25.98;;;;;;;;;;4993515;28;20033;-63
2021/04/05 06:22:11;;;;;;;68.28;21.40;;;;;;;;;;5035412;28;20033;-63
2021/04/05 06:24:40;;;;;;;68.95;30.83;;;;;;;;;;5032056;28;20116;-63
2021/04/05 06:27:12;;;;;;;78.43;30.67;;;;;;;;;;5033156;28;20018;-63
2021/04/05 06:29:52;;;;;;;66.63;28.27;;;;;;;;;;5033055;28;20029;-63
2021/04/05 06:32:27;;;;;;;76.35;31.20;;;;;;;;;;5040127;28;20025;-63
2021/04/05 06:34:54;;;;;;;75.38;31.35;;;;;;;;;;5033246;28;20033;-63
2021/04/05 06:37:36;;;;;;;70.97;31.00;;;;;;;;;;5035222;28;20548;-63
2021/04/05 06:40:09;;;;;;;66.10;27.02;;;;;;;;;;5029399;28;20022;-63
2021/04/05 06:42:52;;;;;;;56.25;26.10;;;;;;;;;;5032856;28;20021;-63
2021/04/05 06:45:21;;;;;;;76.65;32.10;;;;;;;;;;5015291;28;20491;-63
2021/04/05 06:48:05;;;;;;;72.55;29.10;;;;;;;;;;5032982;28;20382;-63
2021/04/05 06:50:30;;;;;;;66.03;27.85;;;;;;;;;;5036308;28;20025;-63
2021/04/05 06:53:07;;;;;;;71.07;29.52;;;;;;;;;;5040055;28;20022;-63
2021/04/05 06:55:43;;;;;;;68.07;27.42;;;;;;;;;;5032669;28;20033;-64
2021/04/05 06:58:22;;;;;;;56.30;20.98;;;;;;;;;;5048256;28;20112;-65
2021/04/05 07:01:06;;;;;;;56.67;23.20;;;;;;;;;;5036470;28;20047;-63
2021/04/05 07:03:49;;;;;;;68.18;29.00;;;;;;;;;;5039057;28;20033;-63
2021/04/05 07:06:41;;;;;;;56.28;23.02;;;;;;;;;;5037768;28;20128;-63
2021/04/05 07:09:10;;;;;;;50.08;21.65;;;;;;;;;;5018511;28;20032;-63
2021/04/05 07:11:35;;;;;;;86.30;30.88;;;;;;;;;;5035269;28;20037;-63
2021/04/05 07:14:12;;;;;;;67.87;26.80;;;;;;;;;;5034065;28;20363;-63
2021/04/05 07:16:47;;;;;;;65.25;26.35;;;;;;;;;;5035996;28;20325;-63
2021/04/05 07:19:12;;;;;;;54.55;17.27;;;;;;;;;;5038835;28;20414;-63
2021/04/05 07:22:10;;;;;;;61.08;24.77;;;;;;;;;;5052602;28;20142;-63
2021/04/05 07:24:38;;;;;;;57.42;21.60;;;;;;;;;;5007700;28;20276;-63
2021/04/05 07:27:03;;;;;;;69.93;30.50;;;;;;;;;;5041638;28;20033;-63
2021/04/05 07:29:42;;;;;;;75.13;30.52;;;;;;;;;;5042554;28;20047;-63
2021/04/05 07:32:33;;;;;;;72.70;29.98;;;;;;;;;;5040113;28;20026;-63
2021/04/05 07:34:58;;;;;;;41.92;16.70;;;;;;;;;;4995661;28;20037;-63
2021/04/05 07:37:31;;;;;;;79.32;26.20;;;;;;;;;;5037417;28;20111;-63
2021/04/05 07:40:05;;;;;;;86.85;33.35;;;;;;;;;;5042417;28;20279;-63
2021/04/05 07:42:36;;;;;;;83.45;35.80;;;;;;;;;;5041973;28;20024;-63
2021/04/05 07:45:10;;;;;;;89.70;36.67;;;;;;;;;;5029524;28;20106;-63
2021/04/05 07:47:41;;;;;;;97.65;37.20;;;;;;;;;;5043235;28;20021;-63
2021/04/05 07:50:10;;;;;;;95.93;40.92;;;;;;;;;;5031875;28;20300;-63
2021/04/05 07:52:41;;;;;;;92.60;42.08;;;;;;;;;;5032837;28;20848;-63
2021/04/05 07:55:06;;;;;;;58.22;20.48;;;;;;;;;;5036508;28;20036;-63
2021/04/05 07:57:32;;;;;;;79.07;37.25;;;;;;;;;;5035497;28;20473;-63
2021/04/05 08:00:03;;;;;;;79.35;35.08;;;;;;;;;;5041319;28;20039;-63
2021/04/05 08:02:47;;;;;;;88.05;38.08;;;;;;;;;;5036230;28;20057;-63
2021/04/05 08:05:35;;;;;;;99.43;42.05;;;;;;;;;;5024294;28;20022;-63
2021/04/05 08:08:13;;;;;;;72.90;33.88;;;;;;;;;;5039046;28;20044;-63
2021/04/05 08:10:48;;;;;;;79.25;32.75;;;;;;;;;;5052229;22;20036;-84
2021/04/05 08:13:21;;;;;;;93.43;35.50;;;;;;;;;;5008713;28;20062;-87
2021/04/05 08:16:05;;;;;;;84.20;38.00;;;;;;;;;;5004017;28;20421;-85
2021/04/05 08:18:50;;;;;;;73.63;33.83;;;;;;;;;;5005620;28;20028;-85
2021/04/05 08:21:15;;;;;;;77.38;30.67;;;;;;;;;;5016782;28;20353;-85
2021/04/05 08:23:52;;;;;;;72.68;28.63;;;;;;;;;;5010080;28;20021;-85
2021/04/05 08:26:22;;;;;;;74.40;30.63;;;;;;;;;;5023036;28;20025;-85
2021/04/05 08:29:17;;;;;;;85.72;30.63;;;;;;;;;;5004368;28;20079;-86
2021/04/05 08:31:42;;;;;;;55.35;24.05;;;;;;;;;;4999475;28;20032;-85
2021/04/05 08:34:26;;;;;;;36.13;15.88;;;;;;;;;;5025923;28;20029;-86
2021/04/05 08:37:10;;;;;;;28.00;10.85;;;;;;;;;;5007063;28;20093;-84
2021/04/05 08:39:48;;;;;;;29.45;10.60;;;;;;;;;;5008295;28;20018;-84
2021/04/05 08:42:30;;;;;;;32.97;11.20;;;;;;;;;;5009173;28;20029;-83
2021/04/05 08:45:02;;;;;;;25.08;7.88;;;;;;;;;;5022327;28;20426;-84
2021/04/05 08:47:29;;;;;;;19.48;8.45;;;;;;;;;;5026723;28;20108;-86
2021/04/05 08:49:56;;;;;;;14.05;5.28;;;;;;;;;;5025596;28;20030;-84
2021/04/05 08:52:23;;;;;;;13.50;5.63;;;;;;;;;;5016199;28;20025;-83
2021/04/05 08:54:49;;;;;;;14.95;5.40;;;;;;;;;;5025231;28;20079;-85
2021/04/05 08:57:18;;;;;;;20.40;6.13;;;;;;;;;;5026328;28;20486;-84
2021/04/05 09:00:02;;;;;;;22.73;5.18;;;;;;;;;;5007770;28;20229;-83
2021/04/05 09:02:49;;;;;;;19.67;6.95;;;;;;;;;;5008283;28;20018;-83
2021/04/05 09:05:18;;;;;;;16.55;5.68;;;;;;;;;;5026299;28;20096;-84
2021/04/05 09:07:51;;;;;;;12.50;5.55;;;;;;;;;;5024025;28;20424;-82
2021/04/05 09:10:20;;;;;;;12.32;4.78;;;;;;;;;;5026426;28;20021;-84
2021/04/05 09:12:47;;;;;;;14.65;5.43;;;;;;;;;;5007411;28;20033;-84
2021/04/05 09:15:12;;;;;;;16.15;4.38;;;;;;;;;;5022715;28;20034;-84
2021/04/05 09:17:49;;;;;;;10.98;4.57;;;;;;;;;;5008428;28;20075;-85
2021/04/05 09:20:23;;;;;;;7.50;2.78;;;;;;;;;;5008972;28;20051;-84
2021/04/05 09:23:08;;;;;;;11.93;2.10;;;;;;;;;;5026666;28;20025;-83
2021/04/05 09:25:51;;;;;;;7.97;2.60;;;;;;;;;;5007462;28;20079;-84
2021/04/05 09:28:35;;;;;;;12.57;2.90;;;;;;;;;;5024567;28;20034;-83
2021/04/05 09:31:22;;;;;;;9.05;3.20;;;;;;;;;;5025755;28;20433;-83
2021/04/05 09:33:55;;;;;;;5.38;2.38;;;;;;;;;;5007319;28;20110;-83
2021/04/05 09:36:24;;;;;;;6.80;2.22;;;;;;;;;;5008265;28;20032;-86
2021/04/05 09:38:56;;;;;;;8.73;1.70;;;;;;;;;;5025342;28;20397;-84
2021/04/05 09:41:27;;;;;;;12.63;2.95;;;;;;;;;;5008106;28;20288;-84
2021/04/05 09:43:52;;;;;;;2.42;1.10;;;;;;;;;;5007929;28;20367;-85
2021/04/05 09:46:27;;;;;;;6.53;1.42;;;;;;;;;;5008120;28;20025;-83
2021/04/05 09:49:02;;;;;;;5.45;1.92;;;;;;;;;;5014223;28;20025;-84
2021/04/05 09:51:27;;;;;;;3.78;2.35;;;;;;;;;;5019988;28;20496;-84
2021/04/05 09:53:57;;;;;;;6.97;2.95;;;;;;;;;;5024338;28;20033;-84
2021/04/05 09:56:24;;;;;;;8.48;4.45;;;;;;;;;;5008498;28;20111;-83
2021/04/05 09:58:51;;;;;;;9.65;4.72;;;;;;;;;;5006885;28;20057;-84
2021/04/05 10:01:20;;;;;;;11.05;5.60;;;;;;;;;;5023934;28;20025;-84
2021/04/05 10:03:46;;;;;;;9.23;5.17;;;;;;;;;;5008560;28;20025;-85
2021/04/05 10:06:16;;;;;;;12.45;6.00;;;;;;;;;;5025086;28;20624;-83
2021/04/05 10:08:46;;;;;;;21.35;6.18;;;;;;;;;;5007194;28;20025;-84
2021/04/05 10:11:12;;;;;;;10.13;5.50;;;;;;;;;;5007455;28;20036;-84
2021/04/05 10:14:02;;;;;;;12.85;5.93;;;;;;;;;;5028422;28;20531;-83
2021/04/05 10:16:28;;;;;;;15.30;4.82;;;;;;;;;;5005390;28;20021;-84
2021/04/05 10:19:08;;;;;;;21.25;3.58;;;;;;;;;;5006445;28;20033;-84
2021/04/05 10:21:34;;;;;;;12.57;2.70;;;;;;;;;;5026010;28;20108;-84
2021/04/05 10:23:59;;;;;;;13.35;3.97;;;;;;;;;;5008252;28;20445;-85
2021/04/05 10:26:32;;;;;;;12.10;3.88;;;;;;;;;;5007229;28;20117;-85
2021/04/05 10:28:57;;;;;;;12.95;3.72;;;;;;;;;;5004340;28;20113;-82
2021/04/05 10:31:24;;;;;;;16.45;4.40;;;;;;;;;;5006355;28;20143;-85
2021/04/05 10:33:51;;;;;;;14.68;3.38;;;;;;;;;;5007450;28;20033;-84
2021/04/05 10:36:21;;;;;;;8.45;2.78;;;;;;;;;;5011257;28;20025;-86
2021/04/05 10:38:47;;;;;;;9.43;2.97;;;;;;;;;;5028375;28;20501;-85
2021/04/05 10:41:16;;;;;;;17.48;3.50;;;;;;;;;;5011292;28;20045;-87
2021/04/05 10:43:44;;;;;;;11.88;2.13;;;;;;;;;;4995188;28;20030;-86
2021/04/05 10:46:17;;;;;;;17.55;2.58;;;;;;;;;;5010956;28;20531;-86
2021/04/05 10:48:46;;;;;;;11.45;2.03;;;;;;;;;;5026243;28;20069;-85
2021/04/05 10:51:20;;;;;;;13.07;2.22;;;;;;;;;;5011984;28;20033;-85
2021/04/05 10:53:48;;;;;;;14.57;3.25;;;;;;;;;;5028397;28;20779;-85
2021/04/05 10:56:14;;;;;;;15.40;2.10;;;;;;;;;;5030871;28;20092;-84
2021/04/05 10:58:45;;;;;;;11.73;2.47;;;;;;;;;;5015732;28;20028;-85
2021/04/05 11:01:12;;;;;;;24.65;3.50;;;;;;;;;;5012883;28;20569;-84
2021/04/05 11:03:46;;;;;;;20.23;2.80;;;;;;;;;;5014054;28;20108;-85
2021/04/05 11:06:13;;;;;;;24.83;3.03;;;;;;;;;;5030942;28;20047;-84
2021/04/05 11:08:38;;;;;;;25.15;3.88;;;;;;;;;;5012972;28;20491;-84
2021/04/05 11:11:05;;;;;;;21.55;3.55;;;;;;;;;;5013152;28;20034;-84
2021/04/05 11:13:31;;;;;;;26.33;3.33;;;;;;;;;;5013052;28;20029;-84
2021/04/05 11:15:57;;;;;;;22.88;4.10;;;;;;;;;;5013189;28;20036;-83
2021/04/05 11:18:24;;;;;;;15.23;3.08;;;;;;;;;;5011854;28;20021;-83
2021/04/05 11:20:51;;;;;;;19.95;3.33;;;;;;;;;;5013670;28;20080;-84
2021/04/05 11:23:18;;;;;;;22.50;3.80;;;;;;;;;;5013554;28;20480;-83
2021/04/05 11:25:59;;;;;;;24.63;3.20;;;;;;;;;;5030586;28;20037;-84
2021/04/05 11:28:26;;;;;;;16.33;2.67;;;;;;;;;;5030247;28;20053;-84
2021/04/05 11:31:21;;;;;;;19.42;3.45;;;;;;;;;;5010962;28;20093;-84
2021/04/05 11:33:52;;;;;;;7.75;2.90;;;;;;;;;;5008889;28;20042;-85
2021/04/05 11:36:17;;;;;;;9.18;2.92;;;;;;;;;;5030093;28;20035;-86
2021/04/05 11:38:44;;;;;;;11.77;3.35;;;;;;;;;;5012765;28;20021;-84
2021/04/05 11:41:10;;;;;;;8.68;3.75;;;;;;;;;;5013423;28;20548;-83
2021/04/05 11:43:38;;;;;;;8.70;3.95;;;;;;;;;;5013604;28;20097;-85
2021/04/05 11:46:04;;;;;;;7.95;3.30;;;;;;;;;;5013472;28;20732;-85
2021/04/05 11:48:29;;;;;;;8.18;2.30;;;;;;;;;;5011884;28;20022;-84
2021/04/05 11:50:55;;;;;;;7.38;2.13;;;;;;;;;;5013858;28;20032;-85
2021/04/05 11:53:23;;;;;;;7.43;1.60;;;;;;;;;;5013185;28;20021;-84
2021/04/05 11:55:49;;;;;;;7.47;1.98;;;;;;;;;;5012932;28;20069;-84
2021/04/05 11:58:30;;;;;;;5.93;1.52;;;;;;;;;;5011641;28;20503;-84
2021/04/05 12:00:59;;;;;;;;;;;;;;;;;;5031203;28;20083;-85
2021/04/05 12:03:43;;;;;;;8.95;1.75;;;;;;;;;;5029946;28;19916;-86
2021/04/05 12:06:14;;;;;;;11.52;1.70;;;;;;;;;;5018765;28;20032;-85
2021/04/05 12:08:52;;;;;;;7.32;1.17;;;;;;;;;;5012862;28;20056;-84
2021/04/05 12:11:18;;;;;;;3.33;1.02;;;;;;;;;;5027571;28;20025;-86
2021/04/05 12:13:54;;;;;;;6.95;1.55;;;;;;;;;;5033718;28;20030;-83
2021/04/05 12:16:23;;;;;;;6.57;1.33;;;;;;;;;;5012228;28;20040;-86
2021/04/05 12:18:52;;;;;;;10.85;1.45;;;;;;;;;;5012652;28;20143;-85
2021/04/05 12:21:18;;;;;;;9.75;1.73;;;;;;;;;;5015403;28;20452;-84
2021/04/05 12:23:52;;;;;;;5.32;1.40;;;;;;;;;;5009023;28;20025;-84
2021/04/05 12:26:22;;;;;;;8.18;1.33;;;;;;;;;;5011612;28;20013;-84
2021/04/05 12:28:47;;;;;;;8.67;1.30;;;;;;;;;;5028874;28;20025;-84
2021/04/05 12:31:13;;;;;;;4.28;1.30;;;;;;;;;;5011585;28;20266;-84
2021/04/05 12:33:38;;;;;;;3.22;1.33;;;;;;;;;;5029452;28;20100;-83
2021/04/05 12:36:04;;;;;;;6.68;0.90;;;;;;;;;;5011186;28;20444;-82
2021/04/05 12:38:32;;;;;;;6.38;1.20;;;;;;;;;;5011253;28;20049;-83
2021/04/05 12:40:58;;;;;;;11.60;1.73;;;;;;;;;;5029707;28;20377;-84
2021/04/05 12:43:25;;;;;;;6.93;0.95;;;;;;;;;;5011323;28;20025;-83
2021/04/05 12:45:52;;;;;;;5.70;1.23;;;;;;;;;;4997745;28;20026;-83
2021/04/05 12:48:21;;;;;;;9.70;1.60;;;;;;;;;;5027199;28;20017;-84
2021/04/05 12:50:47;;;;;;;10.65;1.60;;;;;;;;;;5008112;28;20358;-83
2021/04/05 12:53:13;;;;;;;7.85;1.65;;;;;;;;;;5011234;28;20525;-84
2021/04/05 12:55:42;;;;;;;6.75;2.13;;;;;;;;;;5011573;28;20026;-84
2021/04/05 12:58:07;;;;;;;16.20;2.58;;;;;;;;;;5010381;28;20148;-84
2021/04/05 13:00:37;;;;;;;13.95;2.50;;;;;;;;;;5028209;28;20134;-84
2021/04/05 13:03:13;;;;;;;12.57;2.00;;;;;;;;;;5011795;28;20026;-82
2021/04/05 13:05:38;;;;;;;8.45;1.50;;;;;;;;;;5023297;28;20026;-85
2021/04/05 13:08:11;;;;;;;12.45;2.28;;;;;;;;;;5028980;28;20026;-84
2021/04/05 13:10:47;;;;;;;8.77;1.50;;;;;;;;;;5034178;28;20029;-83
2021/04/05 13:13:13;;;;;;;26.55;3.05;;;;;;;;;;5017575;28;20037;-84
2021/04/05 13:15:44;;;;;;;12.70;1.95;;;;;;;;;;5007523;28;20022;-84
2021/04/05 13:18:11;;;;;;;10.52;2.30;;;;;;;;;;5010027;28;20112;-84
2021/04/05 13:20:39;;;;;;;14.38;2.60;;;;;;;;;;5030786;28;20044;-84
2021/04/05 13:23:06;;;;;;;9.23;1.55;;;;;;;;;;5014221;28;20435;-84
2021/04/05 13:25:45;;;;;;;6.53;1.70;;;;;;;;;;5015966;28;20544;-84
2021/04/05 13:28:11;;;;;;;7.05;1.52;;;;;;;;;;5016066;28;20029;-84
2021/04/05 13:30:39;;;;;;;7.53;1.75;;;;;;;;;;5035298;28;20030;-84
2021/04/05 13:33:05;;;;;;;16.73;2.70;;;;;;;;;;5020867;28;20051;-84
2021/04/05 13:35:30;;;;;;;5.47;1.35;;;;;;;;;;5023464;28;20028;-82
2021/04/05 13:38:01;;;;;;;20.52;2.17;;;;;;;;;;5030180;28;20065;-83
2021/04/05 13:40:28;;;;;;;13.40;2.10;;;;;;;;;;5049811;28;20073;-81
2021/04/05 13:42:54;;;;;;;9.50;1.35;;;;;;;;;;5031270;28;20017;-82
2021/04/05 13:45:26;;;;;;;9.75;1.70;;;;;;;;;;5051370;28;20005;-82
2021/04/05 13:47:52;;;;;;;4.95;0.80;;;;;;;;;;5052277;28;20024;-83
2021/04/05 13:50:18;;;;;;;5.75;0.80;;;;;;;;;;5051748;28;20017;-82
2021/04/05 13:52:54;;;;;;;10.35;0.88;;;;;;;;;;5030411;28;20010;-82
2021/04/05 13:55:24;;;;;;;7.55;1.40;;;;;;;;;;5045288;22;20021;-67
2021/04/05 13:57:50;;;;;;;16.85;1.45;;;;;;;;;;5043834;28;20041;-67
2021/04/05 14:00:25;;;;;;;5.90;1.27;;;;;;;;;;5047502;28;20032;-67
2021/04/05 14:02:51;;;;;;;3.65;0.80;;;;;;;;;;5063323;22;20053;-68
2021/04/05 14:05:18;;;;;;;5.97;1.10;;;;;;;;;;5048666;28;20017;-66
2021/04/05 14:07:44;;;;;;;7.10;1.50;;;;;;;;;;5048541;28;20024;-67
2021/04/05 14:10:10;;;;;;;8.35;1.58;;;;;;;;;;5048392;28;20024;-67
2021/04/05 14:12:36;;;;;;;10.80;1.15;;;;;;;;;;5052559;28;20170;-64
2021/04/05 14:15:02;;;;;;;8.32;1.70;;;;;;;;;;5053146;28;20025;-66
2021/04/05 14:17:27;;;;;;;7.05;1.48;;;;;;;;;;5052140;28;20424;-65
2021/04/05 14:19:53;;;;;;;10.43;2.83;;;;;;;;;;5034265;28;20025;-67
2021/04/05 14:22:37;;;;;;;10.40;1.52;;;;;;;;;;5053106;28;20056;-63
2021/04/05 14:25:04;;;;;;;5.53;1.25;;;;;;;;;;5049737;28;20017;-64
2021/04/05 14:27:34;;;;;;;12.85;2.53;;;;;;;;;;5050748;28;20013;-66
2021/04/05 14:30:00;;;;;;;8.05;1.30;;;;;;;;;;5052529;28;20096;-64
2021/04/05 14:32:31;;;;;;;6.13;1.67;;;;;;;;;;5049085;28;20087;-63
2021/04/05 14:34:59;;;;;;;8.68;1.33;;;;;;;;;;5051808;28;20024;-64
2021/04/05 14:37:34;;;;;;;9.48;2.33;;;;;;;;;;5052303;28;20044;-66
2021/04/05 14:40:02;;;;;;;9.60;1.60;;;;;;;;;;5043720;28;20033;-66